sensor_id;sensor_type;location;lat;lon;timestamp;temperature;humidity
23723;DHT22;12042;52.136;5.584;2022-08-19T00:01:45;19.90;99.90
23723;DHT22;12042;52.136;5.584;2022-08-19T00:04:12;20.00;99.90
23723;DHT22;12042;52.136;5.584;2022-08-19T00:06:40;20.00;99.90
23723;DHT22;12042;52.136;5.584;2022-08-19T00:09:08;20.00;99.90
23723;DHT22;12042;52.136;5.584;2022-08-19T00:11:35;20.00;99.90
23723;DHT22;12042;52.136;5.584;2022-08-19T00:14:03;20.00;99.90
23723;DHT22;12042;52.136;5.584;2022-08-19T00:16:29;20.00;99.90
23723;DHT22;12042;52.136;5.584;2022-08-19T00:18:55;19.90;99.90
23723;DHT22;12042;52.136;5.584;2022-08-19T00:21:21;19.90;99.90
23723;DHT22;12042;52.136;5.584;2022-08-19T00:23:47;19.90;99.90
23723;DHT22;12042;52.136;5.584;2022-08-19T00:26:13;20.00;99.90
23723;DHT22;12042;52.136;5.584;2022-08-19T00:28:38;20.00;99.90
23723;DHT22;12042;52.136;5.584;2022-08-19T00:31:05;19.90;99.90
23723;DHT22;12042;52.136;5.584;2022-08-19T00:33:32;19.90;99.90
23723;DHT22;12042;52.136;5.584;2022-08-19T00:35:59;19.90;99.90
23723;DHT22;12042;52.136;5.584;2022-08-19T00:38:25;20.00;99.90
23723;DHT22;12042;52.136;5.584;2022-08-19T00:40:51;20.00;99.90
23723;DHT22;12042;52.136;5.584;2022-08-19T00:43:20;20.00;99.90
23723;DHT22;12042;52.136;5.584;2022-08-19T00:45:47;20.00;99.90
23723;DHT22;12042;52.136;5.584;2022-08-19T00:48:14;19.80;99.90
23723;DHT22;12042;52.136;5.584;2022-08-19T00:50:41;19.80;99.90
23723;DHT22;12042;52.136;5.584;2022-08-19T00:53:10;19.70;99.90
23723;DHT22;12042;52.136;5.584;2022-08-19T00:55:37;19.70;99.90
23723;DHT22;12042;52.136;5.584;2022-08-19T00:58:07;19.50;99.90
23723;DHT22;12042;52.136;5.584;2022-08-19T01:00:34;19.40;99.90
23723;DHT22;12042;52.136;5.584;2022-08-19T01:03:06;19.50;99.90
23723;DHT22;12042;52.136;5.584;2022-08-19T01:05:32;19.50;99.90
23723;DHT22;12042;52.136;5.584;2022-08-19T01:08:00;19.60;99.90
23723;DHT22;12042;52.136;5.584;2022-08-19T01:10:29;19.60;99.90
23723;DHT22;12042;52.136;5.584;2022-08-19T01:12:58;19.50;99.90
23723;DHT22;12042;52.136;5.584;2022-08-19T01:15:30;19.60;99.90
23723;DHT22;12042;52.136;5.584;2022-08-19T01:18:01;19.60;99.90
23723;DHT22;12042;52.136;5.584;2022-08-19T01:20:29;19.60;99.90
23723;DHT22;12042;52.136;5.584;2022-08-19T01:22:58;19.60;99.90
23723;DHT22;12042;52.136;5.584;2022-08-19T01:25:34;19.50;99.90
23723;DHT22;12042;52.136;5.584;2022-08-19T01:28:00;19.50;99.90
23723;DHT22;12042;52.136;5.584;2022-08-19T01:30:30;19.50;99.90
23723;DHT22;12042;52.136;5.584;2022-08-19T01:32:56;19.50;99.90
23723;DHT22;12042;52.136;5.584;2022-08-19T01:35:24;19.50;99.90
23723;DHT22;12042;52.136;5.584;2022-08-19T01:37:56;19.50;99.90
23723;DHT22;12042;52.136;5.584;2022-08-19T01:40:24;19.40;99.90
23723;DHT22;12042;52.136;5.584;2022-08-19T01:42:52;19.40;99.90
23723;DHT22;12042;52.136;5.584;2022-08-19T01:45:19;19.40;99.90
23723;DHT22;12042;52.136;5.584;2022-08-19T01:47:46;19.40;99.90
23723;DHT22;12042;52.136;5.584;2022-08-19T01:50:12;19.40;99.90
23723;DHT22;12042;52.136;5.584;2022-08-19T01:52:39;19.30;99.90
23723;DHT22;12042;52.136;5.584;2022-08-19T01:55:09;19.30;99.90
23723;DHT22;12042;52.136;5.584;2022-08-19T01:57:35;19.20;99.90
23723;DHT22;12042;52.136;5.584;2022-08-19T02:00:05;19.10;99.90
23723;DHT22;12042;52.136;5.584;2022-08-19T02:02:31;19.00;99.90
23723;DHT22;12042;52.136;5.584;2022-08-19T02:04:57;18.90;99.90
23723;DHT22;12042;52.136;5.584;2022-08-19T02:07:22;19.00;99.90
23723;DHT22;12042;52.136;5.584;2022-08-19T02:09:48;19.00;99.90
23723;DHT22;12042;52.136;5.584;2022-08-19T02:12:14;19.00;99.90
23723;DHT22;12042;52.136;5.584;2022-08-19T02:14:42;19.00;99.90
23723;DHT22;12042;52.136;5.584;2022-08-19T02:17:07;19.00;99.90
23723;DHT22;12042;52.136;5.584;2022-08-19T02:19:33;19.00;99.90
23723;DHT22;12042;52.136;5.584;2022-08-19T02:22:00;19.00;99.90
23723;DHT22;12042;52.136;5.584;2022-08-19T02:24:26;18.90;99.90
23723;DHT22;12042;52.136;5.584;2022-08-19T02:26:52;18.90;99.90
23723;DHT22;12042;52.136;5.584;2022-08-19T02:29:18;18.80;99.90
23723;DHT22;12042;52.136;5.584;2022-08-19T02:31:43;18.90;99.90
23723;DHT22;12042;52.136;5.584;2022-08-19T02:34:09;18.80;99.90
23723;DHT22;12042;52.136;5.584;2022-08-19T02:36:35;18.90;99.90
23723;DHT22;12042;52.136;5.584;2022-08-19T02:39:00;18.80;99.90
23723;DHT22;12042;52.136;5.584;2022-08-19T02:41:28;18.80;99.90
23723;DHT22;12042;52.136;5.584;2022-08-19T02:43:57;18.80;99.90
23723;DHT22;12042;52.136;5.584;2022-08-19T02:46:31;18.70;99.90
23723;DHT22;12042;52.136;5.584;2022-08-19T02:49:00;18.70;99.90
23723;DHT22;12042;52.136;5.584;2022-08-19T02:51:31;18.80;99.90
23723;DHT22;12042;52.136;5.584;2022-08-19T02:53:57;18.80;99.90
23723;DHT22;12042;52.136;5.584;2022-08-19T02:56:23;18.80;99.90
23723;DHT22;12042;52.136;5.584;2022-08-19T02:58:50;18.80;99.90
23723;DHT22;12042;52.136;5.584;2022-08-19T03:01:28;18.80;99.90
23723;DHT22;12042;52.136;5.584;2022-08-19T03:03:55;18.80;99.90
23723;DHT22;12042;52.136;5.584;2022-08-19T03:06:21;18.80;99.90
23723;DHT22;12042;52.136;5.584;2022-08-19T03:08:48;18.80;99.90
23723;DHT22;12042;52.136;5.584;2022-08-19T03:11:22;18.80;99.90
23723;DHT22;12042;52.136;5.584;2022-08-19T03:13:49;18.80;99.90
23723;DHT22;12042;52.136;5.584;2022-08-19T03:16:17;18.70;99.90
23723;DHT22;12042;52.136;5.584;2022-08-19T03:18:44;18.60;99.90
23723;DHT22;12042;52.136;5.584;2022-08-19T03:21:20;18.60;99.90
23723;DHT22;12042;52.136;5.584;2022-08-19T03:23:46;18.60;99.90
23723;DHT22;12042;52.136;5.584;2022-08-19T03:26:12;18.60;99.90
23723;DHT22;12042;52.136;5.584;2022-08-19T03:28:41;18.70;99.90
23723;DHT22;12042;52.136;5.584;2022-08-19T03:31:12;18.60;99.90
23723;DHT22;12042;52.136;5.584;2022-08-19T03:33:38;18.70;99.90
23723;DHT22;12042;52.136;5.584;2022-08-19T03:36:15;18.70;99.90
23723;DHT22;12042;52.136;5.584;2022-08-19T03:38:44;18.70;99.90
23723;DHT22;12042;52.136;5.584;2022-08-19T03:41:14;18.70;99.90
23723;DHT22;12042;52.136;5.584;2022-08-19T03:43:41;18.60;99.90
23723;DHT22;12042;52.136;5.584;2022-08-19T03:46:13;18.40;99.90
23723;DHT22;12042;52.136;5.584;2022-08-19T03:48:41;18.30;99.90
23723;DHT22;12042;52.136;5.584;2022-08-19T03:51:08;18.10;99.90
23723;DHT22;12042;52.136;5.584;2022-08-19T03:53:40;18.10;99.90
23723;DHT22;12042;52.136;5.584;2022-08-19T03:56:08;18.20;99.90
23723;DHT22;12042;52.136;5.584;2022-08-19T03:58:35;18.20;99.90
23723;DHT22;12042;52.136;5.584;2022-08-19T04:01:01;18.20;99.90
23723;DHT22;12042;52.136;5.584;2022-08-19T04:03:26;18.30;99.90
23723;DHT22;12042;52.136;5.584;2022-08-19T04:05:52;18.30;99.90
23723;DHT22;12042;52.136;5.584;2022-08-19T04:08:18;18.30;99.90
23723;DHT22;12042;52.136;5.584;2022-08-19T04:10:47;18.30;99.90
23723;DHT22;12042;52.136;5.584;2022-08-19T04:13:14;18.10;99.90
23723;DHT22;12042;52.136;5.584;2022-08-19T04:15:44;18.00;99.90
23723;DHT22;12042;52.136;5.584;2022-08-19T04:18:11;18.10;99.90
23723;DHT22;12042;52.136;5.584;2022-08-19T04:20:45;18.10;99.90
23723;DHT22;12042;52.136;5.584;2022-08-19T04:23:12;18.10;99.90
23723;DHT22;12042;52.136;5.584;2022-08-19T04:25:43;18.00;99.90
23723;DHT22;12042;52.136;5.584;2022-08-19T04:28:11;18.00;99.90
23723;DHT22;12042;52.136;5.584;2022-08-19T04:30:47;17.90;99.90
23723;DHT22;12042;52.136;5.584;2022-08-19T04:33:16;17.80;99.90
23723;DHT22;12042;52.136;5.584;2022-08-19T04:35:44;17.70;99.90
23723;DHT22;12042;52.136;5.584;2022-08-19T04:38:11;17.60;99.90
23723;DHT22;12042;52.136;5.584;2022-08-19T04:40:48;17.70;99.90
23723;DHT22;12042;52.136;5.584;2022-08-19T04:43:34;17.80;99.90
23723;DHT22;12042;52.136;5.584;2022-08-19T04:46:12;17.90;99.90
23723;DHT22;12042;52.136;5.584;2022-08-19T04:48:38;18.00;99.90
23723;DHT22;12042;52.136;5.584;2022-08-19T04:51:10;18.00;99.90
23723;DHT22;12042;52.136;5.584;2022-08-19T04:53:39;17.90;99.90
23723;DHT22;12042;52.136;5.584;2022-08-19T04:56:14;17.90;99.90
23723;DHT22;12042;52.136;5.584;2022-08-19T04:58:42;17.90;99.90
23723;DHT22;12042;52.136;5.584;2022-08-19T05:01:13;17.80;99.90
23723;DHT22;12042;52.136;5.584;2022-08-19T05:03:39;17.90;99.90
23723;DHT22;12042;52.136;5.584;2022-08-19T05:06:10;17.90;99.90
23723;DHT22;12042;52.136;5.584;2022-08-19T05:08:38;18.00;99.90
23723;DHT22;12042;52.136;5.584;2022-08-19T05:11:13;18.00;99.90
23723;DHT22;12042;52.136;5.584;2022-08-19T05:13:39;18.00;99.90
23723;DHT22;12042;52.136;5.584;2022-08-19T05:16:05;18.10;99.90
23723;DHT22;12042;52.136;5.584;2022-08-19T05:18:31;18.10;99.90
23723;DHT22;12042;52.136;5.584;2022-08-19T05:21:17;18.10;99.90
23723;DHT22;12042;52.136;5.584;2022-08-19T05:24:02;18.10;99.90
23723;DHT22;12042;52.136;5.584;2022-08-19T05:26:28;18.10;99.90
23723;DHT22;12042;52.136;5.584;2022-08-19T05:28:54;18.10;99.90
23723;DHT22;12042;52.136;5.584;2022-08-19T05:31:20;18.00;99.90
23723;DHT22;12042;52.136;5.584;2022-08-19T05:33:46;18.10;99.90
23723;DHT22;12042;52.136;5.584;2022-08-19T05:36:12;18.10;99.90
23723;DHT22;12042;52.136;5.584;2022-08-19T05:38:39;18.10;99.90
23723;DHT22;12042;52.136;5.584;2022-08-19T05:41:12;18.20;99.90
23723;DHT22;12042;52.136;5.584;2022-08-19T05:43:38;18.20;99.90
23723;DHT22;12042;52.136;5.584;2022-08-19T05:46:06;18.20;99.90
23723;DHT22;12042;52.136;5.584;2022-08-19T05:48:33;18.30;99.90
23723;DHT22;12042;52.136;5.584;2022-08-19T05:51:04;18.30;99.90
23723;DHT22;12042;52.136;5.584;2022-08-19T05:53:32;18.40;99.90
23723;DHT22;12042;52.136;5.584;2022-08-19T05:56:04;18.40;99.90
23723;DHT22;12042;52.136;5.584;2022-08-19T05:58:29;18.40;99.90
23723;DHT22;12042;52.136;5.584;2022-08-19T06:00:56;18.40;99.90
23723;DHT22;12042;52.136;5.584;2022-08-19T06:03:22;18.40;99.90
23723;DHT22;12042;52.136;5.584;2022-08-19T06:05:48;18.40;99.90
23723;DHT22;12042;52.136;5.584;2022-08-19T06:08:13;18.50;99.90
23723;DHT22;12042;52.136;5.584;2022-08-19T06:10:39;18.50;99.90
23723;DHT22;12042;52.136;5.584;2022-08-19T06:13:04;18.50;99.90
23723;DHT22;12042;52.136;5.584;2022-08-19T06:15:31;18.40;99.90
23723;DHT22;12042;52.136;5.584;2022-08-19T06:17:56;18.50;99.90
23723;DHT22;12042;52.136;5.584;2022-08-19T06:20:22;18.50;99.90
23723;DHT22;12042;52.136;5.584;2022-08-19T06:22:48;18.60;99.90
23723;DHT22;12042;52.136;5.584;2022-08-19T06:25:15;18.60;99.90
23723;DHT22;12042;52.136;5.584;2022-08-19T06:27:42;18.60;99.90
23723;DHT22;12042;52.136;5.584;2022-08-19T06:30:09;18.80;99.90
23723;DHT22;12042;52.136;5.584;2022-08-19T06:32:35;18.80;99.90
23723;DHT22;12042;52.136;5.584;2022-08-19T06:35:01;18.80;99.90
23723;DHT22;12042;52.136;5.584;2022-08-19T06:37:26;18.90;99.90
23723;DHT22;12042;52.136;5.584;2022-08-19T06:39:52;18.90;99.90
23723;DHT22;12042;52.136;5.584;2022-08-19T06:42:17;19.00;99.90
23723;DHT22;12042;52.136;5.584;2022-08-19T06:44:46;19.10;99.90
23723;DHT22;12042;52.136;5.584;2022-08-19T06:47:18;19.10;99.90
23723;DHT22;12042;52.136;5.584;2022-08-19T06:49:43;19.20;99.90
23723;DHT22;12042;52.136;5.584;2022-08-19T06:52:10;19.20;99.90
23723;DHT22;12042;52.136;5.584;2022-08-19T06:54:38;19.20;99.90
23723;DHT22;12042;52.136;5.584;2022-08-19T06:57:05;19.30;99.90
23723;DHT22;12042;52.136;5.584;2022-08-19T06:59:32;19.30;99.90
23723;DHT22;12042;52.136;5.584;2022-08-19T07:02:01;19.30;99.90
23723;DHT22;12042;52.136;5.584;2022-08-19T07:04:29;19.30;99.90
23723;DHT22;12042;52.136;5.584;2022-08-19T07:07:13;19.40;99.90
23723;DHT22;12042;52.136;5.584;2022-08-19T07:09:41;19.50;99.90
23723;DHT22;12042;52.136;5.584;2022-08-19T07:12:09;19.60;99.90
23723;DHT22;12042;52.136;5.584;2022-08-19T07:14:36;19.60;99.90
23723;DHT22;12042;52.136;5.584;2022-08-19T07:17:06;19.60;99.90
23723;DHT22;12042;52.136;5.584;2022-08-19T07:19:32;19.60;99.90
23723;DHT22;12042;52.136;5.584;2022-08-19T07:22:00;19.60;99.90
23723;DHT22;12042;52.136;5.584;2022-08-19T07:24:27;19.60;99.90
23723;DHT22;12042;52.136;5.584;2022-08-19T07:26:55;19.50;99.90
23723;DHT22;12042;52.136;5.584;2022-08-19T07:29:22;19.60;99.90
23723;DHT22;12042;52.136;5.584;2022-08-19T07:31:50;19.50;99.90
23723;DHT22;12042;52.136;5.584;2022-08-19T07:34:16;19.50;99.90
23723;DHT22;12042;52.136;5.584;2022-08-19T07:36:43;19.50;99.90
23723;DHT22;12042;52.136;5.584;2022-08-19T07:39:12;19.50;99.90
23723;DHT22;12042;52.136;5.584;2022-08-19T07:41:39;19.50;99.90
23723;DHT22;12042;52.136;5.584;2022-08-19T07:44:07;19.50;99.90
23723;DHT22;12042;52.136;5.584;2022-08-19T07:46:35;19.50;99.90
23723;DHT22;12042;52.136;5.584;2022-08-19T07:49:02;19.50;99.90
23723;DHT22;12042;52.136;5.584;2022-08-19T07:51:28;19.70;99.90
23723;DHT22;12042;52.136;5.584;2022-08-19T07:53:53;19.80;99.90
23723;DHT22;12042;52.136;5.584;2022-08-19T07:56:20;19.90;99.90
23723;DHT22;12042;52.136;5.584;2022-08-19T07:58:49;19.90;99.90
23723;DHT22;12042;52.136;5.584;2022-08-19T08:01:22;20.00;99.90
23723;DHT22;12042;52.136;5.584;2022-08-19T08:03:50;20.10;99.90
23723;DHT22;12042;52.136;5.584;2022-08-19T08:06:35;20.30;99.90
23723;DHT22;12042;52.136;5.584;2022-08-19T08:09:23;20.30;99.90
23723;DHT22;12042;52.136;5.584;2022-08-19T08:14:25;20.50;99.90
23723;DHT22;12042;52.136;5.584;2022-08-19T08:16:51;20.60;99.90
23723;DHT22;12042;52.136;5.584;2022-08-19T08:19:20;20.80;99.90
23723;DHT22;12042;52.136;5.584;2022-08-19T08:21:47;20.80;99.90
23723;DHT22;12042;52.136;5.584;2022-08-19T08:24:12;20.70;99.90
23723;DHT22;12042;52.136;5.584;2022-08-19T08:26:39;20.70;99.90
23723;DHT22;12042;52.136;5.584;2022-08-19T08:29:05;20.60;99.90
23723;DHT22;12042;52.136;5.584;2022-08-19T08:31:32;20.70;99.90
23723;DHT22;12042;52.136;5.584;2022-08-19T08:33:59;20.70;99.90
23723;DHT22;12042;52.136;5.584;2022-08-19T08:36:24;20.80;99.90
23723;DHT22;12042;52.136;5.584;2022-08-19T08:38:51;20.80;99.90
23723;DHT22;12042;52.136;5.584;2022-08-19T08:41:42;20.80;99.90
23723;DHT22;12042;52.136;5.584;2022-08-19T08:44:20;21.10;99.90
23723;DHT22;12042;52.136;5.584;2022-08-19T08:46:50;21.50;99.90
23723;DHT22;12042;52.136;5.584;2022-08-19T08:49:26;21.90;99.90
23723;DHT22;12042;52.136;5.584;2022-08-19T08:52:21;22.00;99.90
23723;DHT22;12042;52.136;5.584;2022-08-19T08:54:50;21.90;99.90
23723;DHT22;12042;52.136;5.584;2022-08-19T08:57:36;21.80;99.90
23723;DHT22;12042;52.136;5.584;2022-08-19T09:00:07;21.70;99.90
23723;DHT22;12042;52.136;5.584;2022-08-19T09:02:33;21.70;99.90
23723;DHT22;12042;52.136;5.584;2022-08-19T09:04:59;21.60;99.90
23723;DHT22;12042;52.136;5.584;2022-08-19T09:07:53;21.50;99.90
23723;DHT22;12042;52.136;5.584;2022-08-19T09:10:39;21.50;99.90
23723;DHT22;12042;52.136;5.584;2022-08-19T09:15:58;21.80;99.90
23723;DHT22;12042;52.136;5.584;2022-08-19T09:18:43;22.10;99.90
23723;DHT22;12042;52.136;5.584;2022-08-19T09:21:09;22.30;99.90
23723;DHT22;12042;52.136;5.584;2022-08-19T09:23:36;22.40;99.90
23723;DHT22;12042;52.136;5.584;2022-08-19T09:26:10;22.60;99.90
23723;DHT22;12042;52.136;5.584;2022-08-19T09:28:39;22.70;99.90
23723;DHT22;12042;52.136;5.584;2022-08-19T09:31:17;22.90;99.90
23723;DHT22;12042;52.136;5.584;2022-08-19T09:33:42;23.10;99.90
23723;DHT22;12042;52.136;5.584;2022-08-19T09:36:12;23.30;99.90
23723;DHT22;12042;52.136;5.584;2022-08-19T09:38:39;23.40;99.90
23723;DHT22;12042;52.136;5.584;2022-08-19T09:41:10;23.30;99.90
23723;DHT22;12042;52.136;5.584;2022-08-19T09:43:38;23.20;99.90
23723;DHT22;12042;52.136;5.584;2022-08-19T09:46:04;23.10;99.90
23723;DHT22;12042;52.136;5.584;2022-08-19T09:48:35;23.20;99.90
23723;DHT22;12042;52.136;5.584;2022-08-19T09:51:08;23.40;99.90
23723;DHT22;12042;52.136;5.584;2022-08-19T09:53:35;23.60;99.90
23723;DHT22;12042;52.136;5.584;2022-08-19T09:56:01;24.00;99.90
23723;DHT22;12042;52.136;5.584;2022-08-19T09:58:27;24.30;99.90
23723;DHT22;12042;52.136;5.584;2022-08-19T10:00:55;24.50;99.90
23723;DHT22;12042;52.136;5.584;2022-08-19T10:03:22;24.50;99.90
23723;DHT22;12042;52.136;5.584;2022-08-19T10:05:48;24.30;99.90
23723;DHT22;12042;52.136;5.584;2022-08-19T10:08:22;24.30;99.90
23723;DHT22;12042;52.136;5.584;2022-08-19T10:10:49;24.50;99.90
23723;DHT22;12042;52.136;5.584;2022-08-19T10:13:19;24.40;99.90
23723;DHT22;12042;52.136;5.584;2022-08-19T10:15:49;24.30;99.90
23723;DHT22;12042;52.136;5.584;2022-08-19T10:18:20;24.30;99.90
23723;DHT22;12042;52.136;5.584;2022-08-19T10:20:47;24.40;99.90
23723;DHT22;12042;52.136;5.584;2022-08-19T10:23:14;24.50;99.90
23723;DHT22;12042;52.136;5.584;2022-08-19T10:25:41;24.70;99.90
23723;DHT22;12042;52.136;5.584;2022-08-19T10:28:07;25.00;99.90
23723;DHT22;12042;52.136;5.584;2022-08-19T10:30:35;25.40;99.90
23723;DHT22;12042;52.136;5.584;2022-08-19T10:33:01;25.60;99.90
23723;DHT22;12042;52.136;5.584;2022-08-19T10:35:26;25.60;99.90
23723;DHT22;12042;52.136;5.584;2022-08-19T10:37:55;25.60;99.90
23723;DHT22;12042;52.136;5.584;2022-08-19T10:40:25;25.50;99.90
23723;DHT22;12042;52.136;5.584;2022-08-19T10:42:51;25.30;99.90
23723;DHT22;12042;52.136;5.584;2022-08-19T10:45:17;25.20;99.90
23723;DHT22;12042;52.136;5.584;2022-08-19T10:47:43;24.90;99.90
23723;DHT22;12042;52.136;5.584;2022-08-19T10:50:09;24.80;99.90
23723;DHT22;12042;52.136;5.584;2022-08-19T10:52:53;24.70;99.90
23723;DHT22;12042;52.136;5.584;2022-08-19T10:55:21;24.60;99.90
23723;DHT22;12042;52.136;5.584;2022-08-19T10:58:17;24.90;99.90
23723;DHT22;12042;52.136;5.584;2022-08-19T11:00:57;25.20;99.90
23723;DHT22;12042;52.136;5.584;2022-08-19T11:03:25;25.30;99.90
23723;DHT22;12042;52.136;5.584;2022-08-19T11:06:05;25.40;99.90
23723;DHT22;12042;52.136;5.584;2022-08-19T11:08:32;25.50;99.90
23723;DHT22;12042;52.136;5.584;2022-08-19T11:10:59;25.50;99.90
23723;DHT22;12042;52.136;5.584;2022-08-19T11:13:27;25.50;99.90
23723;DHT22;12042;52.136;5.584;2022-08-19T11:15:58;25.70;99.90
23723;DHT22;12042;52.136;5.584;2022-08-19T11:18:24;25.90;99.90
23723;DHT22;12042;52.136;5.584;2022-08-19T11:20:50;26.30;99.90
23723;DHT22;12042;52.136;5.584;2022-08-19T11:23:15;26.50;99.90
23723;DHT22;12042;52.136;5.584;2022-08-19T11:25:41;26.60;99.90
23723;DHT22;12042;52.136;5.584;2022-08-19T11:28:06;26.50;99.90
23723;DHT22;12042;52.136;5.584;2022-08-19T11:30:32;26.40;99.90
23723;DHT22;12042;52.136;5.584;2022-08-19T11:32:59;26.60;99.90
23723;DHT22;12042;52.136;5.584;2022-08-19T11:35:26;26.80;99.90
23723;DHT22;12042;52.136;5.584;2022-08-19T11:37:52;26.80;99.90
23723;DHT22;12042;52.136;5.584;2022-08-19T11:40:17;26.80;99.90
23723;DHT22;12042;52.136;5.584;2022-08-19T11:42:43;26.90;99.90
23723;DHT22;12042;52.136;5.584;2022-08-19T11:45:22;26.90;99.90
23723;DHT22;12042;52.136;5.584;2022-08-19T11:47:48;26.80;99.90
23723;DHT22;12042;52.136;5.584;2022-08-19T11:50:15;26.90;99.90
23723;DHT22;12042;52.136;5.584;2022-08-19T11:52:41;27.00;99.90
23723;DHT22;12042;52.136;5.584;2022-08-19T11:55:08;27.00;99.90
23723;DHT22;12042;52.136;5.584;2022-08-19T11:57:34;27.20;99.90
23723;DHT22;12042;52.136;5.584;2022-08-19T11:59:59;27.10;99.90
23723;DHT22;12042;52.136;5.584;2022-08-19T12:02:25;26.90;99.90
23723;DHT22;12042;52.136;5.584;2022-08-19T12:04:51;26.80;99.90
23723;DHT22;12042;52.136;5.584;2022-08-19T12:07:16;26.70;99.90
23723;DHT22;12042;52.136;5.584;2022-08-19T12:09:42;26.70;99.90
23723;DHT22;12042;52.136;5.584;2022-08-19T12:12:09;26.80;99.90
23723;DHT22;12042;52.136;5.584;2022-08-19T12:14:35;27.00;99.90
23723;DHT22;12042;52.136;5.584;2022-08-19T12:17:01;27.00;99.90
23723;DHT22;12042;52.136;5.584;2022-08-19T12:19:27;27.10;99.90
23723;DHT22;12042;52.136;5.584;2022-08-19T12:21:58;27.20;99.90
23723;DHT22;12042;52.136;5.584;2022-08-19T12:24:26;27.30;99.90
23723;DHT22;12042;52.136;5.584;2022-08-19T12:26:51;27.10;99.90
23723;DHT22;12042;52.136;5.584;2022-08-19T12:29:17;26.80;99.90
23723;DHT22;12042;52.136;5.584;2022-08-19T12:31:43;26.70;99.90
23723;DHT22;12042;52.136;5.584;2022-08-19T12:34:08;26.80;99.90
23723;DHT22;12042;52.136;5.584;2022-08-19T12:36:34;26.80;99.90
23723;DHT22;12042;52.136;5.584;2022-08-19T12:39:00;26.60;99.90
23723;DHT22;12042;52.136;5.584;2022-08-19T12:41:26;26.50;99.90
23723;DHT22;12042;52.136;5.584;2022-08-19T12:43:52;26.40;99.90
23723;DHT22;12042;52.136;5.584;2022-08-19T12:46:18;26.30;99.90
23723;DHT22;12042;52.136;5.584;2022-08-19T12:48:44;26.30;99.90
23723;DHT22;12042;52.136;5.584;2022-08-19T12:51:13;26.20;99.90
23723;DHT22;12042;52.136;5.584;2022-08-19T12:53:40;26.00;99.90
23723;DHT22;12042;52.136;5.584;2022-08-19T12:56:07;25.90;99.90
23723;DHT22;12042;52.136;5.584;2022-08-19T12:58:33;25.70;99.90
23723;DHT22;12042;52.136;5.584;2022-08-19T13:01:05;25.70;99.90
23723;DHT22;12042;52.136;5.584;2022-08-19T13:03:31;25.60;99.90
23723;DHT22;12042;52.136;5.584;2022-08-19T13:05:57;25.40;99.90
23723;DHT22;12042;52.136;5.584;2022-08-19T13:08:22;25.20;99.90
23723;DHT22;12042;52.136;5.584;2022-08-19T13:10:48;25.10;99.90
23723;DHT22;12042;52.136;5.584;2022-08-19T13:13:14;24.90;99.90
23723;DHT22;12042;52.136;5.584;2022-08-19T13:15:41;24.90;99.90
23723;DHT22;12042;52.136;5.584;2022-08-19T13:18:08;24.90;99.90
23723;DHT22;12042;52.136;5.584;2022-08-19T13:20:36;24.90;99.90
23723;DHT22;12042;52.136;5.584;2022-08-19T13:23:02;24.90;99.90
23723;DHT22;12042;52.136;5.584;2022-08-19T13:25:28;24.80;99.90
23723;DHT22;12042;52.136;5.584;2022-08-19T13:27:54;24.70;99.90
23723;DHT22;12042;52.136;5.584;2022-08-19T13:30:21;24.50;99.90
23723;DHT22;12042;52.136;5.584;2022-08-19T13:33:06;24.50;99.90
23723;DHT22;12042;52.136;5.584;2022-08-19T13:35:51;24.30;99.90
23723;DHT22;12042;52.136;5.584;2022-08-19T13:38:22;24.30;99.90
23723;DHT22;12042;52.136;5.584;2022-08-19T13:40:50;24.30;99.90
23723;DHT22;12042;52.136;5.584;2022-08-19T13:43:17;24.20;99.90
23723;DHT22;12042;52.136;5.584;2022-08-19T13:45:43;24.00;99.90
23723;DHT22;12042;52.136;5.584;2022-08-19T13:48:09;23.70;99.90
23723;DHT22;12042;52.136;5.584;2022-08-19T13:50:40;23.60;99.90
23723;DHT22;12042;52.136;5.584;2022-08-19T13:53:08;23.50;99.90
23723;DHT22;12042;52.136;5.584;2022-08-19T13:55:34;23.50;99.90
23723;DHT22;12042;52.136;5.584;2022-08-19T13:58:01;23.40;99.90
23723;DHT22;12042;52.136;5.584;2022-08-19T14:00:36;23.40;99.90
23723;DHT22;12042;52.136;5.584;2022-08-19T14:03:03;23.30;99.90
23723;DHT22;12042;52.136;5.584;2022-08-19T14:05:30;23.40;99.90
23723;DHT22;12042;52.136;5.584;2022-08-19T14:07:56;23.30;99.90
23723;DHT22;12042;52.136;5.584;2022-08-19T14:10:22;23.00;99.90
23723;DHT22;12042;52.136;5.584;2022-08-19T14:12:49;23.00;99.90
23723;DHT22;12042;52.136;5.584;2022-08-19T14:15:15;22.90;99.90
23723;DHT22;12042;52.136;5.584;2022-08-19T14:17:43;23.00;99.90
23723;DHT22;12042;52.136;5.584;2022-08-19T14:20:10;22.90;99.90
23723;DHT22;12042;52.136;5.584;2022-08-19T14:22:37;23.00;99.90
23723;DHT22;12042;52.136;5.584;2022-08-19T14:25:05;23.00;99.90
23723;DHT22;12042;52.136;5.584;2022-08-19T14:27:33;23.00;99.90
23723;DHT22;12042;52.136;5.584;2022-08-19T14:29:59;23.00;99.90
23723;DHT22;12042;52.136;5.584;2022-08-19T14:32:25;23.00;99.90
23723;DHT22;12042;52.136;5.584;2022-08-19T14:34:53;23.00;99.90
23723;DHT22;12042;52.136;5.584;2022-08-19T14:37:18;22.90;99.90
23723;DHT22;12042;52.136;5.584;2022-08-19T14:39:44;22.80;99.90
23723;DHT22;12042;52.136;5.584;2022-08-19T14:42:11;22.70;99.90
23723;DHT22;12042;52.136;5.584;2022-08-19T14:44:39;22.80;99.90
23723;DHT22;12042;52.136;5.584;2022-08-19T14:47:05;22.70;99.90
23723;DHT22;12042;52.136;5.584;2022-08-19T14:49:32;22.80;99.90
23723;DHT22;12042;52.136;5.584;2022-08-19T14:51:57;22.80;99.90
23723;DHT22;12042;52.136;5.584;2022-08-19T14:54:23;22.80;99.90
23723;DHT22;12042;52.136;5.584;2022-08-19T14:56:49;22.90;99.90
23723;DHT22;12042;52.136;5.584;2022-08-19T14:59:15;23.00;99.90
23723;DHT22;12042;52.136;5.584;2022-08-19T15:01:41;23.10;99.90
23723;DHT22;12042;52.136;5.584;2022-08-19T15:04:07;23.20;99.90
23723;DHT22;12042;52.136;5.584;2022-08-19T15:06:33;23.20;99.90
23723;DHT22;12042;52.136;5.584;2022-08-19T15:08:59;23.20;99.90
23723;DHT22;12042;52.136;5.584;2022-08-19T15:11:27;23.20;99.90
23723;DHT22;12042;52.136;5.584;2022-08-19T15:13:56;23.30;99.90
23723;DHT22;12042;52.136;5.584;2022-08-19T15:16:23;23.30;99.90
23723;DHT22;12042;52.136;5.584;2022-08-19T15:18:52;23.30;99.90
23723;DHT22;12042;52.136;5.584;2022-08-19T15:21:19;23.30;99.90
23723;DHT22;12042;52.136;5.584;2022-08-19T15:23:48;23.30;99.90
23723;DHT22;12042;52.136;5.584;2022-08-19T15:26:16;23.40;99.90
23723;DHT22;12042;52.136;5.584;2022-08-19T15:28:42;23.40;99.90
23723;DHT22;12042;52.136;5.584;2022-08-19T15:31:07;23.60;99.90
23723;DHT22;12042;52.136;5.584;2022-08-19T15:33:36;23.60;99.90
23723;DHT22;12042;52.136;5.584;2022-08-19T15:36:06;23.70;99.90
23723;DHT22;12042;52.136;5.584;2022-08-19T15:38:33;23.60;99.90
23723;DHT22;12042;52.136;5.584;2022-08-19T15:41:01;23.70;99.90
23723;DHT22;12042;52.136;5.584;2022-08-19T15:43:47;23.80;99.90